Time;durP1;ratioP1;P1;durP2;ratioP2;P2;SDS_P1;SDS_P2;PMS_P1;PMS_P2;Temp;Humidity;BMP_temperature;BMP_pressure;BME280_temperature;BME280_humidity;BME280_pressure;Samples;Min_cycle;Max_cycle;Signal;HPM_P1;HPM_P2
2021/10/14 00:01:33;;;;;;;7.20;5.18;;;13.00;99.90;;;;;;5054150;28;20202;-79
2021/10/14 00:03:59;;;;;;;8.98;5.38;;;13.10;99.90;;;;;;5054254;28;20163;-79
2021/10/14 00:06:25;;;;;;;11.43;5.45;;;13.10;99.90;;;;;;5053507;28;20190;-82
2021/10/14 00:08:50;;;;;;;7.32;6.28;;;13.30;99.90;;;;;;5052918;28;20215;-79
2021/10/14 00:11:16;;;;;;;11.48;6.22;;;13.40;99.90;;;;;;5059218;28;20609;-77
2021/10/14 00:13:42;;;;;;;7.57;6.57;;;13.20;99.90;;;;;;5059575;28;20186;-78
2021/10/14 00:16:08;;;;;;;11.07;6.15;;;13.10;99.90;;;;;;5062078;28;20154;-77
2021/10/14 00:18:34;;;;;;;6.93;5.93;;;13.10;99.90;;;;;;5065959;28;20682;-77
2021/10/14 00:20:59;;;;;;;7.10;5.80;;;13.00;99.90;;;;;;5059736;28;20650;-85
2021/10/14 00:23:25;;;;;;;9.52;6.15;;;13.00;99.90;;;;;;5058547;28;20207;-77
2021/10/14 00:25:51;;;;;;;9.50;6.88;;;13.10;99.90;;;;;;5058238;28;20170;-77
2021/10/14 00:28:17;;;;;;;16.60;6.15;;;13.20;99.90;;;;;;5060319;28;20218;-78
2021/10/14 00:30:42;;;;;;;13.43;6.22;;;13.30;99.90;;;;;;5056790;28;20186;-77
2021/10/14 00:33:09;;;;;;;11.05;6.68;;;13.40;99.90;;;;;;5053533;28;20175;-76
2021/10/14 00:35:34;;;;;;;13.88;6.13;;;13.30;99.90;;;;;;5050927;28;20631;-77
2021/10/14 00:38:00;;;;;;;11.45;7.10;;;13.20;99.90;;;;;;5052614;28;20187;-76
2021/10/14 00:40:26;;;;;;;8.68;5.80;;;13.10;99.90;;;;;;5052643;28;20171;-76
2021/10/14 00:42:53;;;;;;;7.90;6.28;;;13.20;99.90;;;;;;5053177;28;20693;-94
2021/10/14 00:45:20;;;;;;;13.20;6.35;;;13.30;99.90;;;;;;5052851;28;20534;-76
2021/10/14 00:47:46;;;;;;;10.95;6.93;;;13.30;99.90;;;;;;5051321;28;20260;-78
2021/10/14 00:50:11;;;;;;;10.70;6.03;;;13.40;99.90;;;;;;5051724;28;20171;-77
2021/10/14 00:52:40;;;;;;;9.52;6.68;;;13.10;99.90;;;;;;5053241;28;20191;-76
2021/10/14 00:55:06;;;;;;;14.55;6.55;;;13.30;99.90;;;;;;5051970;28;20163;-76
2021/10/14 00:57:32;;;;;;;12.27;6.38;;;13.40;99.90;;;;;;5052018;28;20289;-77
2021/10/14 00:59:59;;;;;;;11.70;7.47;;;13.30;99.90;;;;;;5052293;28;20167;-81
2021/10/14 01:02:25;;;;;;;16.08;7.05;;;13.30;99.90;;;;;;5053321;28;20198;-77
2021/10/14 01:04:54;;;;;;;8.25;5.90;;;13.40;99.90;;;;;;5053147;28;20167;-77
2021/10/14 01:07:20;;;;;;;13.75;5.95;;;13.40;99.90;;;;;;5052835;28;20221;-77
2021/10/14 01:09:46;;;;;;;14.10;6.10;;;13.30;99.90;;;;;;5052775;28;20163;-94
2021/10/14 01:12:13;;;;;;;11.07;6.13;;;13.40;99.90;;;;;;5053550;28;20624;-88
2021/10/14 01:14:38;;;;;;;8.60;5.95;;;13.00;99.90;;;;;;5054306;28;20527;-86
2021/10/14 01:17:04;;;;;;;10.82;5.90;;;13.10;99.90;;;;;;5053302;28;20191;-76
2021/10/14 01:19:29;;;;;;;9.77;4.85;;;13.10;99.90;;;;;;5053196;28;20174;-77
2021/10/14 01:21:55;;;;;;;7.53;5.80;;;13.10;99.90;;;;;;5053439;28;20171;-77
2021/10/14 01:24:21;;;;;;;11.25;5.78;;;13.10;99.90;;;;;;5054853;28;20167;-85
2021/10/14 01:26:46;;;;;;;9.40;5.45;;;12.90;99.90;;;;;;5056676;28;20683;-77
2021/10/14 01:29:12;;;;;;;10.13;5.97;;;12.90;99.90;;;;;;5057237;28;20207;-80
2021/10/14 01:31:38;;;;;;;7.70;5.70;;;13.10;99.90;;;;;;5057476;28;20167;-79
2021/10/14 01:34:04;;;;;;;8.55;5.85;;;13.10;99.90;;;;;;5056483;28;20178;-76
2021/10/14 01:36:30;;;;;;;7.57;4.80;;;13.20;99.90;;;;;;5057597;28;20193;-82
2021/10/14 01:38:56;;;;;;;13.40;6.00;;;13.30;99.90;;;;;;5057290;28;20242;-84
2021/10/14 01:41:22;;;;;;;11.13;5.75;;;13.30;99.90;;;;;;5056873;28;20175;-76
2021/10/14 01:43:47;;;;;;;12.70;5.82;;;13.30;99.90;;;;;;5056653;28;20171;-77
2021/10/14 01:46:14;;;;;;;7.53;5.45;;;13.40;99.90;;;;;;5056425;28;20167;-84
2021/10/14 01:48:39;;;;;;;12.02;6.22;;;13.20;99.90;;;;;;5056827;28;20225;-76
2021/10/14 01:51:07;;;;;;;7.85;6.20;;;13.20;99.90;;;;;;5057799;28;20175;-77
2021/10/14 01:53:33;;;;;;;9.68;6.50;;;12.90;99.90;;;;;;5057383;28;20179;-86
2021/10/14 01:55:59;;;;;;;19.48;6.97;;;12.70;99.90;;;;;;5055589;28;20160;-77
2021/10/14 01:58:24;;;;;;;11.20;6.10;;;12.80;99.90;;;;;;5056812;28;20260;-76
2021/10/14 02:00:52;;;;;;;11.82;6.20;;;13.00;99.90;;;;;;5056957;28;20167;-77
2021/10/14 02:03:18;;;;;;;9.07;5.65;;;13.00;99.90;;;;;;5057234;28;20199;-77
2021/10/14 02:05:44;;;;;;;10.93;5.85;;;12.90;99.90;;;;;;5056437;28;20171;-77
2021/10/14 02:08:10;;;;;;;14.57;6.00;;;13.00;99.90;;;;;;5056667;28;20207;-83
2021/10/14 02:10:36;;;;;;;13.48;6.28;;;13.00;99.90;;;;;;5056307;28;20220;-76
2021/10/14 02:13:03;;;;;;;14.25;5.90;;;13.00;99.90;;;;;;5056014;28;20171;-94
2021/10/14 02:15:28;;;;;;;11.50;5.60;;;13.00;99.90;;;;;;5055197;28;20254;-91
2021/10/14 02:17:54;;;;;;;9.68;5.22;;;13.00;99.90;;;;;;5055496;28;20285;-85
2021/10/14 02:20:20;;;;;;;9.18;4.93;;;12.90;99.90;;;;;;5054224;28;20175;-76
2021/10/14 02:22:46;;;;;;;10.15;4.72;;;12.90;99.90;;;;;;5055722;28;20206;-77
2021/10/14 02:25:13;;;;;;;17.92;5.07;;;13.00;99.90;;;;;;5054272;28;20175;-78
2021/10/14 02:27:39;;;;;;;5.25;4.28;;;13.00;99.90;;;;;;5055771;28;20215;-77
2021/10/14 02:30:07;;;;;;;7.38;4.28;;;12.90;99.90;;;;;;5055696;28;20183;-78
2021/10/14 02:32:33;;;;;;;5.53;4.82;;;13.10;99.90;;;;;;5055315;28;20167;-77
2021/10/14 02:34:58;;;;;;;10.82;4.97;;;13.10;99.90;;;;;;5055185;28;20186;-88
2021/10/14 02:37:26;;;;;;;6.85;4.82;;;12.80;99.90;;;;;;5055187;28;20220;-76
2021/10/14 02:39:51;;;;;;;10.63;5.00;;;12.60;99.90;;;;;;5055606;28;20638;-91
2021/10/14 02:42:17;;;;;;;5.28;4.47;;;12.70;99.90;;;;;;5056346;28;20310;-84
2021/10/14 02:44:43;;;;;;;15.75;5.57;;;12.80;99.90;;;;;;5055493;28;20167;-79
2021/10/14 02:47:09;;;;;;;7.30;5.32;;;12.80;99.90;;;;;;5055094;28;20214;-77
2021/10/14 02:49:35;;;;;;;9.20;4.78;;;13.00;99.90;;;;;;5055214;28;20182;-85
2021/10/14 02:52:00;;;;;;;8.43;4.45;;;13.00;99.90;;;;;;5055117;28;20504;-86
2021/10/14 02:54:26;;;;;;;8.35;5.00;;;12.60;99.90;;;;;;5054614;28;20167;-76
2021/10/14 02:56:52;;;;;;;8.00;4.88;;;12.80;99.90;;;;;;5054634;28;20200;-76
2021/10/14 02:59:17;;;;;;;7.30;4.75;;;12.90;99.90;;;;;;5053277;28;20158;-77
2021/10/14 03:01:43;;;;;;;5.97;4.85;;;12.90;99.90;;;;;;5054584;28;20185;-77
2021/10/14 03:04:08;;;;;;;11.20;5.15;;;12.90;99.90;;;;;;5054552;28;20676;-89
2021/10/14 03:06:34;;;;;;;12.25;5.22;;;12.80;99.90;;;;;;5054431;28;20175;-76
2021/10/14 03:09:00;;;;;;;8.63;5.22;;;12.90;99.90;;;;;;5054606;28;20238;-86
2021/10/14 03:11:25;;;;;;;12.45;5.95;;;12.80;99.90;;;;;;5054404;28;20167;-77
2021/10/14 03:13:51;;;;;;;7.65;5.15;;;12.80;99.90;;;;;;5054582;28;20200;-76
2021/10/14 03:16:17;;;;;;;10.07;5.47;;;12.80;99.90;;;;;;5054276;28;20256;-80
2021/10/14 03:18:42;;;;;;;10.98;5.68;;;12.70;99.90;;;;;;5053233;28;20213;-78
2021/10/14 03:21:08;;;;;;;5.55;4.45;;;12.80;99.90;;;;;;5054330;28;20167;-85
2021/10/14 03:23:34;;;;;;;15.65;5.93;;;12.60;99.90;;;;;;5054262;28;20577;-86
2021/10/14 03:26:02;;;;;;;8.23;5.30;;;12.60;99.90;;;;;;5054125;28;20500;-81
2021/10/14 03:28:29;;;;;;;12.25;5.55;;;12.70;99.90;;;;;;5054982;28;20207;-82
2021/10/14 03:30:55;;;;;;;9.30;5.18;;;12.50;99.90;;;;;;5055090;28;20175;-95
2021/10/14 03:33:21;;;;;;;8.00;5.28;;;12.50;99.90;;;;;;5054912;28;20163;-77
2021/10/14 03:35:47;;;;;;;7.00;4.68;;;12.40;99.90;;;;;;5056533;28;20178;-84
2021/10/14 03:38:12;;;;;;;13.30;6.72;;;12.60;99.90;;;;;;5057065;28;20195;-77
2021/10/14 03:40:38;;;;;;;5.80;5.25;;;12.60;99.90;;;;;;5053298;28;20166;-77
2021/10/14 03:43:04;;;;;;;12.18;4.97;;;12.70;99.90;;;;;;5053262;28;20225;-77
2021/10/14 03:45:30;;;;;;;14.05;5.72;;;12.60;99.90;;;;;;5052456;28;20289;-77
2021/10/14 03:47:55;;;;;;;9.05;5.38;;;12.80;99.90;;;;;;5052822;28;20548;-77
2021/10/14 03:50:21;;;;;;;7.00;5.07;;;12.90;99.90;;;;;;5051909;28;20257;-77
2021/10/14 03:52:46;;;;;;;11.43;5.85;;;12.90;99.90;;;;;;5052010;28;20167;-77
2021/10/14 03:55:12;;;;;;;9.30;5.68;;;13.00;99.90;;;;;;5053463;28;20174;-77
2021/10/14 03:57:38;;;;;;;13.32;6.03;;;12.90;99.90;;;;;;5052075;28;20187;-77
2021/10/14 04:00:05;;;;;;;9.40;6.47;;;13.00;99.90;;;;;;5053245;28;20163;-85
2021/10/14 04:02:31;;;;;;;11.73;5.63;;;13.00;99.90;;;;;;5053076;28;20631;-77
2021/10/14 04:04:56;;;;;;;10.25;6.00;;;13.10;99.90;;;;;;5053129;28;20170;-77
2021/10/14 04:07:22;;;;;;;14.88;6.53;;;13.20;99.90;;;;;;5052871;28;20205;-77
2021/10/14 04:09:48;;;;;;;8.00;5.88;;;13.20;99.90;;;;;;5052668;28;20175;-77
2021/10/14 04:15:35;;;;;;;14.27;6.45;;;13.00;99.90;;;;;;5054237;28;20229;-78
2021/10/14 04:18:01;;;;;;;13.98;6.55;;;13.10;99.90;;;;;;5052762;28;20187;-77
2021/10/14 04:20:26;;;;;;;9.00;6.95;;;13.00;99.90;;;;;;5052864;28;20167;-77
2021/10/14 04:22:53;;;;;;;15.18;6.85;;;12.70;99.90;;;;;;5053198;28;20210;-77
2021/10/14 04:25:19;;;;;;;13.85;6.78;;;12.50;99.90;;;;;;5053096;28;20186;-77
2021/10/14 04:27:45;;;;;;;10.70;5.72;;;12.30;99.90;;;;;;5052881;28;20237;-76
2021/10/14 04:30:11;;;;;;;9.57;6.40;;;12.40;99.90;;;;;;5052701;28;20179;-78
2021/10/14 04:32:37;;;;;;;8.68;6.90;;;12.50;99.90;;;;;;5053459;28;20175;-87
2021/10/14 04:35:04;;;;;;;14.40;7.20;;;12.70;99.90;;;;;;5053600;28;20636;-76
2021/10/14 04:37:29;;;;;;;10.85;6.68;;;12.80;99.90;;;;;;5052761;28;20191;-88
2021/10/14 04:39:56;;;;;;;19.33;6.97;;;12.70;99.90;;;;;;5052801;28;20301;-77
2021/10/14 04:42:21;;;;;;;16.25;7.82;;;12.80;99.90;;;;;;5052703;28;20171;-81
2021/10/14 04:44:47;;;;;;;11.52;6.43;;;12.70;99.90;;;;;;5051872;28;20186;-78
2021/10/14 04:47:18;;;;;;;16.52;6.85;;;12.80;99.90;;;;;;5053429;28;20195;-80
2021/10/14 04:49:44;;;;;;;9.35;6.20;;;12.50;99.90;;;;;;5054671;28;20171;-77
2021/10/14 04:52:10;;;;;;;13.43;6.82;;;12.40;99.90;;;;;;5053820;28;20209;-83
2021/10/14 04:54:36;;;;;;;9.88;6.32;;;12.60;99.90;;;;;;5053025;28;20187;-77
2021/10/14 04:57:01;;;;;;;9.52;6.32;;;12.50;99.90;;;;;;5053633;28;20190;-77
2021/10/14 04:59:27;;;;;;;14.63;6.85;;;12.50;99.90;;;;;;5051993;28;20166;-78
2021/10/14 05:01:58;;;;;;;10.75;5.50;;;12.50;99.90;;;;;;5053279;28;20179;-78
2021/10/14 05:04:24;;;;;;;11.93;5.72;;;12.60;99.90;;;;;;5052619;28;20498;-82
2021/10/14 05:06:49;;;;;;;14.30;6.00;;;12.60;99.90;;;;;;5052479;28;20689;-78
2021/10/14 05:09:15;;;;;;;10.20;5.78;;;12.60;99.90;;;;;;5052391;28;20260;-77
2021/10/14 05:11:41;;;;;;;11.85;5.75;;;12.40;99.90;;;;;;5052755;28;20165;-79
2021/10/14 05:14:07;;;;;;;5.85;5.13;;;12.60;99.90;;;;;;5055015;28;20171;-77
2021/10/14 05:16:33;;;;;;;8.98;5.72;;;12.80;99.90;;;;;;5054432;28;20522;-77
2021/10/14 05:19:02;;;;;;;7.25;5.22;;;12.80;99.90;;;;;;5053195;28;20171;-78
2021/10/14 05:21:29;;;;;;;8.85;6.22;;;12.70;99.90;;;;;;5053800;28;20166;-77
2021/10/14 05:23:59;;;;;;;10.90;6.53;;;12.50;99.90;;;;;;5051990;28;20584;-77
2021/10/14 05:26:28;;;;;;;7.32;5.90;;;12.70;99.90;;;;;;5052258;28;20260;-77
2021/10/14 05:28:55;;;;;;;10.55;5.90;;;12.60;99.90;;;;;;5052371;28;20246;-77
2021/10/14 05:31:21;;;;;;;11.02;6.20;;;12.70;99.90;;;;;;5051724;28;20183;-77
2021/10/14 05:33:47;;;;;;;14.00;5.68;;;12.60;99.90;;;;;;5051553;28;20175;-76
2021/10/14 05:36:12;;;;;;;8.65;6.30;;;12.60;99.90;;;;;;5051970;28;20191;-77
2021/10/14 05:38:38;;;;;;;15.88;6.40;;;12.70;99.90;;;;;;5054192;28;20213;-87
2021/10/14 05:41:04;;;;;;;12.13;6.10;;;12.80;99.90;;;;;;5053771;28;20653;-77
2021/10/14 05:43:29;;;;;;;8.48;6.15;;;12.70;99.90;;;;;;5052227;28;20167;-81
2021/10/14 05:45:55;;;;;;;15.95;6.47;;;12.70;99.90;;;;;;5051976;28;20163;-77
2021/10/14 05:48:21;;;;;;;9.80;5.43;;;12.60;99.90;;;;;;5051582;28;20245;-76
2021/10/14 05:50:46;;;;;;;8.95;6.35;;;12.60;99.90;;;;;;5051519;28;20568;-77
2021/10/14 05:53:12;;;;;;;11.00;6.30;;;12.60;99.90;;;;;;5051883;28;20171;-78
2021/10/14 05:55:38;;;;;;;7.40;5.72;;;12.40;99.90;;;;;;5051412;28;20163;-77
2021/10/14 05:58:04;;;;;;;10.23;5.38;;;12.40;99.90;;;;;;5053986;28;20214;-77
2021/10/14 06:00:30;;;;;;;9.40;6.50;;;12.30;99.90;;;;;;5052248;28;20175;-76
2021/10/14 06:02:55;;;;;;;13.55;6.88;;;12.30;99.90;;;;;;5051273;28;20171;-77
2021/10/14 06:05:21;;;;;;;16.42;6.75;;;12.20;99.90;;;;;;5051151;28;20167;-77
2021/10/14 06:07:50;;;;;;;10.65;7.10;;;12.40;99.90;;;;;;5051257;28;20203;-77
2021/10/14 06:10:16;;;;;;;7.90;6.07;;;12.30;99.90;;;;;;5051661;28;20163;-77
2021/10/14 06:12:42;;;;;;;17.25;6.90;;;12.30;99.90;;;;;;5054951;28;20174;-77
2021/10/14 06:15:08;;;;;;;15.63;6.05;;;12.50;99.90;;;;;;5053642;28;20167;-77
2021/10/14 06:17:34;;;;;;;8.63;6.55;;;12.20;99.90;;;;;;5054419;28;20248;-77
2021/10/14 06:20:00;;;;;;;15.55;6.38;;;12.10;99.90;;;;;;5054261;28;20163;-77
2021/10/14 06:22:26;;;;;;;14.10;6.65;;;12.20;99.90;;;;;;5054757;28;20175;-78
2021/10/14 06:24:52;;;;;;;17.05;6.82;;;12.30;99.90;;;;;;5054579;28;20175;-78
2021/10/14 06:27:17;;;;;;;20.70;6.68;;;12.20;99.90;;;;;;5055174;28;20277;-78
2021/10/14 06:29:43;;;;;;;17.15;7.30;;;12.30;99.90;;;;;;5054701;28;20198;-79
2021/10/14 06:32:08;;;;;;;16.83;6.65;;;12.40;99.90;;;;;;5054435;28;20164;-78
2021/10/14 06:34:34;;;;;;;13.50;6.75;;;12.50;99.90;;;;;;5056696;28;20175;-79
2021/10/14 06:37:01;;;;;;;21.13;6.65;;;12.30;99.90;;;;;;5056124;28;20183;-77
2021/10/14 06:39:28;;;;;;;15.18;6.20;;;12.40;99.90;;;;;;5063228;28;20242;-77
2021/10/14 06:41:56;;;;;;;11.45;6.20;;;12.40;99.90;;;;;;5060650;28;20261;-77
2021/10/14 06:44:22;;;;;;;27.77;7.45;;;12.50;99.90;;;;;;5054479;28;20233;-78
2021/10/14 06:46:49;;;;;;;8.50;5.63;;;12.50;99.90;;;;;;5055713;28;20196;-78
2021/10/14 06:49:14;;;;;;;10.65;6.50;;;12.60;99.90;;;;;;5060485;28;20245;-80
2021/10/14 06:51:40;;;;;;;7.63;6.03;;;12.70;99.90;;;;;;5060371;28;20179;-78
2021/10/14 06:54:05;;;;;;;23.92;6.80;;;12.50;99.90;;;;;;5059535;28;20171;-78
2021/10/14 06:56:31;;;;;;;12.63;5.97;;;12.50;99.90;;;;;;5061036;28;20273;-80
2021/10/14 06:58:57;;;;;;;24.52;8.45;;;12.60;99.90;;;;;;5055700;28;20663;-78
2021/10/14 07:01:22;;;;;;;9.52;7.22;;;12.80;99.90;;;;;;5069155;28;20178;-82
2021/10/14 07:03:48;;;;;;;33.20;7.72;;;12.90;99.90;;;;;;5094638;28;20699;-79
2021/10/14 07:06:15;;;;;;;21.05;8.30;;;13.10;99.90;;;;;;5092544;28;20296;-78
2021/10/14 07:08:41;;;;;;;12.40;6.70;;;13.10;99.90;;;;;;5094560;28;20233;-79
2021/10/14 07:11:07;;;;;;;10.05;6.75;;;13.20;99.90;;;;;;5067608;28;20207;-86
2021/10/14 07:13:33;;;;;;;13.00;7.38;;;13.00;99.90;;;;;;5053066;28;20291;-82
2021/10/14 07:15:58;;;;;;;12.80;7.70;;;13.10;99.90;;;;;;5070155;28;20239;-78
2021/10/14 07:18:24;;;;;;;13.60;6.57;;;13.10;99.90;;;;;;5074234;28;20626;-77
2021/10/14 07:20:50;;;;;;;9.73;7.47;;;13.10;99.90;;;;;;5072741;28;20163;-79
2021/10/14 07:23:16;;;;;;;9.70;7.22;;;13.20;99.90;;;;;;5073994;28;20237;-78
2021/10/14 07:25:43;;;;;;;9.27;6.78;;;13.10;99.90;;;;;;5073739;28;20641;-81
2021/10/14 07:28:09;;;;;;;15.63;7.65;;;13.20;99.90;;;;;;5074388;28;20217;-78
2021/10/14 07:30:36;;;;;;;15.80;7.13;;;13.30;99.90;;;;;;5075133;28;20542;-78
2021/10/14 07:33:04;;;;;;;13.68;6.32;;;13.50;99.90;;;;;;5073635;28;20266;-78
2021/10/14 07:35:35;;;;;;;10.45;6.07;;;13.50;99.90;;;;;;5075028;28;20197;-79
2021/10/14 07:38:02;;;;;;;16.92;7.15;;;13.30;99.90;;;;;;5074132;28;20234;-79
2021/10/14 07:40:28;;;;;;;18.92;7.25;;;13.60;99.90;;;;;;5077155;28;20169;-89
2021/10/14 07:42:54;;;;;;;8.90;6.07;;;13.60;99.90;;;;;;5078380;28;20166;-77
2021/10/14 07:45:20;;;;;;;11.95;7.78;;;13.50;99.90;;;;;;5073454;28;20171;-78
2021/10/14 07:47:46;;;;;;;9.20;6.80;;;13.50;99.90;;;;;;5073648;28;20228;-81
2021/10/14 07:50:14;;;;;;;10.60;6.10;;;13.60;99.90;;;;;;5077357;28;20197;-88
2021/10/14 07:52:42;;;;;;;7.45;6.15;;;13.50;99.90;;;;;;5079544;28;20170;-78
2021/10/14 07:55:10;;;;;;;11.48;7.15;;;13.30;99.90;;;;;;5075803;28;20188;-93
2021/10/14 07:57:36;;;;;;;8.75;6.70;;;13.40;99.90;;;;;;5075114;28;20194;-78
2021/10/14 08:00:04;;;;;;;7.75;5.65;;;13.40;99.90;;;;;;5078068;28;20645;-87
2021/10/14 08:02:30;;;;;;;12.25;6.15;;;13.50;99.90;;;;;;5077587;28;20171;-80
2021/10/14 08:04:56;;;;;;;11.00;7.55;;;13.50;99.90;;;;;;5082287;28;20167;-94
2021/10/14 08:07:22;;;;;;;10.35;5.80;;;13.60;99.90;;;;;;5083997;28;20190;-78
2021/10/14 08:09:48;;;;;;;6.68;5.78;;;13.40;99.90;;;;;;5075285;28;20159;-78
2021/10/14 08:12:14;;;;;;;9.60;6.18;;;13.50;99.90;;;;;;5074238;28;20174;-85
2021/10/14 08:14:40;;;;;;;14.50;5.72;;;13.50;99.90;;;;;;5078514;28;20174;-80
2021/10/14 08:17:05;;;;;;;11.93;6.55;;;13.60;99.90;;;;;;5072392;28;20190;-80
2021/10/14 08:19:31;;;;;;;13.98;6.20;;;13.70;99.90;;;;;;5074639;28;20166;-77
2021/10/14 08:21:57;;;;;;;13.63;5.80;;;13.70;99.90;;;;;;5071685;28;20479;-77
2021/10/14 08:24:24;;;;;;;8.80;5.88;;;14.00;99.90;;;;;;5072728;28;20272;-78
2021/10/14 08:26:50;;;;;;;8.90;5.22;;;14.00;99.90;;;;;;5072334;28;20198;-79
2021/10/14 08:29:16;;;;;;;9.27;5.85;;;13.90;99.90;;;;;;5072258;28;20194;-76
2021/10/14 08:31:43;;;;;;;7.80;5.53;;;14.10;99.90;;;;;;5072434;28;20504;-76
2021/10/14 08:34:09;;;;;;;5.95;5.18;;;14.20;99.90;;;;;;5071754;28;20163;-76
2021/10/14 08:36:34;;;;;;;12.43;5.63;;;14.30;99.90;;;;;;5071279;28;20243;-78
2021/10/14 08:39:00;;;;;;;14.18;6.20;;;14.40;99.90;;;;;;5073190;28;20472;-77
2021/10/14 08:41:25;;;;;;;7.00;5.50;;;14.60;99.90;;;;;;5072550;28;20220;-76
2021/10/14 08:43:52;;;;;;;8.32;6.13;;;14.40;99.90;;;;;;5073163;28;20653;-77
2021/10/14 08:46:19;;;;;;;9.15;5.43;;;14.30;99.90;;;;;;5077246;28;20212;-82
2021/10/14 08:48:44;;;;;;;8.77;5.63;;;14.40;99.90;;;;;;5080040;28;20273;-84
2021/10/14 08:51:10;;;;;;;16.75;6.00;;;14.50;99.90;;;;;;5087283;28;20166;-82
2021/10/14 08:53:37;;;;;;;12.65;6.22;;;14.40;99.90;;;;;;5089166;28;20177;-89
2021/10/14 08:56:04;;;;;;;12.52;5.57;;;14.50;99.90;;;;;;5086772;28;20204;-85
2021/10/14 08:58:29;;;;;;;12.85;6.22;;;14.60;99.90;;;;;;5087852;28;20187;-87
2021/10/14 09:01:13;;;;;;;9.45;6.22;;;14.60;99.90;;;;;;5090107;28;20184;-83
2021/10/14 09:03:47;;;;;;;14.35;6.57;;;14.60;99.90;;;;;;5089381;28;20246;-89
2021/10/14 09:06:15;;;;;;;12.20;6.30;;;14.60;99.90;;;;;;5091746;28;20174;-84
2021/10/14 09:08:47;;;;;;;6.72;5.70;;;14.60;99.90;;;;;;5090851;28;20222;-84
2021/10/14 09:11:28;;;;;;;9.32;5.68;;;14.80;99.90;;;;;;5092716;28;20166;-81
2021/10/14 09:13:57;;;;;;;9.27;5.78;;;15.10;99.90;;;;;;5089178;28;20541;-79
2021/10/14 09:16:36;;;;;;;7.75;6.22;;;15.30;99.90;;;;;;5087234;28;20174;-77
2021/10/14 09:19:20;;;;;;;11.63;5.65;;;15.00;99.90;;;;;;5082454;28;20230;-76
2021/10/14 09:21:51;;;;;;;14.65;6.55;;;15.00;99.90;;;;;;5085471;28;20250;-79
2021/10/14 09:24:30;;;;;;;13.20;5.85;;;15.10;99.90;;;;;;5079486;28;20174;-76
2021/10/14 09:26:58;;;;;;;11.35;5.53;;;15.20;99.90;;;;;;5079956;28;20665;-77
2021/10/14 09:29:28;;;;;;;9.65;5.30;;;15.10;99.90;;;;;;5075377;28;20666;-77
2021/10/14 09:31:55;;;;;;;6.80;5.47;;;15.10;99.90;;;;;;5079007;28;20173;-78
2021/10/14 09:34:40;;;;;;;10.93;5.22;;;15.10;99.90;;;;;;5080928;28;20171;-78
2021/10/14 09:37:27;;;;;;;8.32;5.40;;;15.20;99.90;;;;;;5077840;28;20281;-80
2021/10/14 09:40:11;;;;;;;8.13;5.28;;;15.20;99.90;;;;;;5079996;28;20167;-78
2021/10/14 09:43:00;;;;;;;6.70;5.32;;;14.90;99.90;;;;;;5079781;28;20169;-82
2021/10/14 09:45:31;;;;;;;13.55;6.65;;;14.90;99.90;;;;;;5083226;28;20194;-81
2021/10/14 09:48:03;;;;;;;7.72;5.97;;;14.90;99.90;;;;;;5085282;28;20228;-78
2021/10/14 09:50:30;;;;;;;8.68;6.13;;;14.90;99.90;;;;;;5079238;28;20503;-79
2021/10/14 09:52:58;;;;;;;6.55;4.45;;;14.70;99.90;;;;;;5075398;28;20186;-78
2021/10/14 09:55:24;;;;;;;9.85;6.30;;;15.00;99.90;;;;;;5077133;28;20173;-81
2021/10/14 09:57:50;;;;;;;6.95;4.90;;;15.20;99.90;;;;;;5075205;28;20263;-78
2021/10/14 10:00:16;;;;;;;11.90;5.18;;;15.20;99.90;;;;;;5077148;28;20603;-80
2021/10/14 10:02:43;;;;;;;9.10;5.63;;;15.40;99.90;;;;;;5078493;28;20189;-83
2021/10/14 10:05:10;;;;;;;6.30;5.15;;;15.70;99.90;;;;;;5077395;28;20722;-88
2021/10/14 10:07:42;;;;;;;8.00;5.90;;;15.60;99.90;;;;;;5079311;28;20234;-77
2021/10/14 10:10:09;;;;;;;8.07;5.78;;;15.60;99.90;;;;;;5081357;28;20284;-88
2021/10/14 10:12:36;;;;;;;10.77;5.40;;;15.60;99.90;;;;;;5080936;28;20167;-85
2021/10/14 10:15:02;;;;;;;13.88;5.32;;;15.60;99.90;;;;;;5081102;28;20194;-88
2021/10/14 10:17:42;;;;;;;8.88;5.22;;;15.60;99.90;;;;;;5082336;28;20244;-89
2021/10/14 10:20:10;;;;;;;8.45;5.85;;;15.60;99.90;;;;;;5081687;28;20173;-91
2021/10/14 10:22:35;;;;;;;6.85;4.60;;;15.60;99.90;;;;;;5078351;28;20170;-82
2021/10/14 10:25:16;;;;;;;7.35;5.63;;;15.70;99.90;;;;;;5085269;28;20171;-82
2021/10/14 10:27:46;;;;;;;9.57;6.00;;;15.60;99.90;;;;;;5084762;28;20190;-77
2021/10/14 10:30:32;;;;;;;9.73;6.22;;;15.70;99.90;;;;;;5077720;28;20239;-75
2021/10/14 10:32:58;;;;;;;12.13;5.88;;;15.90;99.90;;;;;;5076910;28;20185;-76
2021/10/14 10:35:42;;;;;;;6.20;5.60;;;16.10;99.90;;;;;;5089631;28;20166;-81
2021/10/14 10:38:26;;;;;;;9.27;6.40;;;16.10;99.90;;;;;;5091310;28;20250;-75
2021/10/14 10:40:56;;;;;;;12.07;5.30;;;15.90;99.90;;;;;;5090202;28;20183;-95
2021/10/14 10:43:29;;;;;;;8.50;5.78;;;15.90;99.90;;;;;;5089813;28;20202;-87
2021/10/14 10:46:05;;;;;;;7.03;5.50;;;16.00;99.90;;;;;;5088021;28;20219;-89
2021/10/14 10:48:35;;;;;;;9.98;6.03;;;15.90;99.90;;;;;;5077479;28;20206;-80
2021/10/14 10:51:01;;;;;;;14.63;5.70;;;16.00;99.90;;;;;;5081628;28;20688;-92
2021/10/14 10:53:45;;;;;;;14.45;6.03;;;16.00;99.90;;;;;;5078520;28;20286;-77
2021/10/14 10:56:33;;;;;;;10.45;5.75;;;16.00;99.90;;;;;;5074573;28;20200;-75
2021/10/14 10:59:00;;;;;;;15.20;5.97;;;15.90;99.90;;;;;;5074859;28;20186;-75
2021/10/14 11:01:26;;;;;;;9.68;5.97;;;15.90;99.90;;;;;;5075434;28;20479;-76
2021/10/14 11:03:54;;;;;;;14.88;7.10;;;15.80;99.90;;;;;;5074916;28;20167;-79
2021/10/14 11:06:20;;;;;;;13.73;7.03;;;15.90;99.90;;;;;;5075736;28;20170;-76
2021/10/14 11:08:46;;;;;;;5.80;5.28;;;15.70;99.90;;;;;;5075168;28;20242;-77
2021/10/14 11:11:16;;;;;;;10.52;6.22;;;15.90;99.90;;;;;;5074343;28;20205;-75
2021/10/14 11:13:45;;;;;;;21.70;5.75;;;16.00;99.90;;;;;;5074093;28;20178;-75
2021/10/14 11:16:11;;;;;;;9.32;5.85;;;15.80;99.90;;;;;;5073847;28;20166;-76
2021/10/14 11:18:42;;;;;;;7.32;5.80;;;15.80;99.90;;;;;;5073877;28;20194;-76
2021/10/14 11:21:14;;;;;;;6.35;5.35;;;16.00;99.90;;;;;;5073618;28;20531;-76
2021/10/14 11:23:42;;;;;;;8.95;5.85;;;16.00;99.90;;;;;;5073842;28;20619;-76
2021/10/14 11:26:09;;;;;;;5.78;4.75;;;15.80;99.90;;;;;;5073870;28;20180;-76
2021/10/14 11:28:58;;;;;;;7.68;6.68;;;15.90;99.90;;;;;;5072423;28;20218;-76
2021/10/14 11:31:36;;;;;;;17.60;5.53;;;16.00;99.90;;;;;;5072936;28;20235;-76
2021/10/14 11:34:09;;;;;;;12.15;5.55;;;16.00;99.90;;;;;;5072540;28;20203;-76
2021/10/14 11:36:36;;;;;;;12.50;5.28;;;16.20;99.90;;;;;;5073098;28;20185;-76
2021/10/14 11:39:10;;;;;;;6.38;5.78;;;16.20;99.90;;;;;;5072521;28;20162;-76
2021/10/14 11:41:40;;;;;;;10.68;5.75;;;16.20;99.90;;;;;;5072623;28;20295;-76
2021/10/14 11:44:08;;;;;;;12.80;5.93;;;16.20;99.90;;;;;;5073250;28;20154;-77
2021/10/14 11:46:37;;;;;;;8.27;5.97;;;16.30;99.90;;;;;;5079462;28;20635;-88
2021/10/14 11:49:07;;;;;;;10.98;5.78;;;16.40;99.90;;;;;;5079962;28;20194;-88
2021/10/14 11:51:34;;;;;;;13.77;5.38;;;16.40;99.90;;;;;;5077089;28;20174;-80
2021/10/14 11:54:09;;;;;;;5.85;5.10;;;16.40;99.90;;;;;;5074641;28;20503;-77
2021/10/14 11:56:52;;;;;;;9.85;6.40;;;16.40;99.90;;;;;;5074554;28;20239;-82
2021/10/14 11:59:23;;;;;;;8.93;6.05;;;16.20;99.90;;;;;;5080062;28;20273;-86
2021/10/14 12:01:58;;;;;;;13.95;7.45;;;16.30;99.90;;;;;;5080319;28;20254;-84
2021/10/14 12:04:36;;;;;;;10.50;5.80;;;16.30;99.90;;;;;;5079550;28;20260;-94
2021/10/14 12:07:02;;;;;;;8.15;6.57;;;16.20;99.90;;;;;;5074864;28;20288;-78
2021/10/14 12:09:40;;;;;;;12.25;5.40;;;16.30;99.90;;;;;;5075064;28;20237;-89
2021/10/14 12:12:06;;;;;;;8.30;6.10;;;16.40;99.90;;;;;;5078003;28;20162;-76
2021/10/14 12:14:31;;;;;;;6.32;5.60;;;16.50;99.90;;;;;;5071940;28;20205;-76
2021/10/14 12:17:24;;;;;;;10.88;5.95;;;16.50;99.90;;;;;;5071058;28;20181;-75
2021/10/14 12:19:52;;;;;;;11.70;5.60;;;16.40;99.90;;;;;;5072409;28;20182;-88
2021/10/14 12:22:22;;;;;;;10.75;5.53;;;16.50;99.90;;;;;;5072675;28;20167;-79
2021/10/14 12:24:57;;;;;;;13.20;6.10;;;16.30;99.90;;;;;;5077133;28;20231;-87
2021/10/14 12:27:46;;;;;;;18.10;5.65;;;16.40;99.90;;;;;;5078323;28;20273;-91
2021/10/14 12:30:20;;;;;;;8.20;5.15;;;16.50;99.90;;;;;;5075059;28;20182;-79
2021/10/14 12:32:46;;;;;;;11.63;6.35;;;16.40;99.90;;;;;;5071645;28;20607;-78
2021/10/14 12:35:13;;;;;;;17.63;7.40;;;16.60;99.90;;;;;;5069908;28;20515;-78
2021/10/14 12:37:39;;;;;;;10.40;6.47;;;16.70;99.90;;;;;;5070760;28;20186;-81
2021/10/14 12:40:19;;;;;;;19.10;6.38;;;16.80;99.90;;;;;;5071529;28;20159;-80
2021/10/14 12:53:59;;;;;;;8.93;5.22;;;16.50;99.90;;;;;;5071845;28;20227;-77
2021/10/14 12:56:35;;;;;;;12.00;5.38;;;16.30;99.90;;;;;;5071933;28;20166;-78
2021/10/14 12:59:07;;;;;;;10.00;5.03;;;16.40;99.90;;;;;;5071199;28;20553;-77